Time;durP1;ratioP1;P1;durP2;ratioP2;P2;SDS_P1;SDS_P2;PMS_P1;PMS_P2;Temp;Humidity;BMP_temperature;BMP_pressure;BME280_temperature;BME280_humidity;BME280_pressure;Samples;Min_cycle;Max_cycle;Signal;HPM_P1;HPM_P2
2023/07/22 00:01:48;;;;;;;;;;;;;;;24.93;100.00;99170.97;5041194;28;19920;-75
2023/07/22 00:04:13;;;;;;;;;;;;;;;24.96;100.00;99171.31;5040047;28;19920;-75
2023/07/22 00:06:38;;;;;;;;;;;;;;;24.96;100.00;99167.78;5039157;28;19931;-75
2023/07/22 00:09:04;;;;;;;;;;;;;;;24.94;100.00;99167.19;5039120;28;19974;-74
2023/07/22 00:11:30;;;;;;;;;;;;;;;24.90;100.00;99166.06;5042403;28;19921;-74
2023/07/22 00:13:55;;;;;;;;;;;;;;;24.90;100.00;99160.66;5043685;28;19936;-74
2023/07/22 00:16:21;;;;;;;;;;;;;;;24.90;100.00;99163.38;5041125;28;19920;-74
2023/07/22 00:18:47;;;;;;;;;;;;;;;24.82;100.00;99169.94;5041082;28;19964;-75
2023/07/22 00:21:13;;;;;;;;;;;;;;;24.78;100.00;99169.63;5042692;28;19927;-75
2023/07/22 00:23:39;;;;;;;;;;;;;;;24.77;100.00;99157.19;5039798;28;19925;-74
2023/07/22 00:26:04;;;;;;;;;;;;;;;24.79;100.00;99159.66;5039304;28;19929;-75
2023/07/22 00:28:30;;;;;;;;;;;;;;;24.77;100.00;99157.19;5040944;28;20016;-74
2023/07/22 00:30:57;;;;;;;;;;;;;;;24.75;100.00;99158.50;5042263;28;19921;-75
2023/07/22 00:33:23;;;;;;;;;;;;;;;24.72;100.00;99153.59;5042389;28;19925;-75
2023/07/22 00:35:52;;;;;;;;;;;;;;;24.69;100.00;99152.19;5039935;28;19967;-75
2023/07/22 00:38:19;;;;;;;;;;;;;;;24.71;100.00;99141.97;5040833;28;19964;-75
2023/07/22 00:40:44;;;;;;;;;;;;;;;24.74;100.00;99146.88;5042658;28;20434;-74
2023/07/22 00:43:10;;;;;;;;;;;;;;;24.73;100.00;99145.25;5035024;28;19925;-75
2023/07/22 00:45:36;;;;;;;;;;;;;;;24.68;100.00;99147.84;5024727;28;20008;-75
2023/07/22 00:48:02;;;;;;;;;;;;;;;24.63;100.00;99149.63;5040675;28;20022;-74
2023/07/22 00:50:28;;;;;;;;;;;;;;;24.56;100.00;99157.91;5041083;28;19928;-75
2023/07/22 00:52:53;;;;;;;;;;;;;;;24.53;100.00;99154.88;5041968;28;19920;-74
2023/07/22 00:55:19;;;;;;;;;;;;;;;24.50;100.00;99156.19;5040293;28;19925;-74
2023/07/22 00:57:45;;;;;;;;;;;;;;;24.51;100.00;99163.19;5039332;28;19950;-74
2023/07/22 01:00:11;;;;;;;;;;;;;;;24.50;100.00;99169.66;5039960;28;19928;-73
2023/07/22 01:02:38;;;;;;;;;;;;;;;24.50;100.00;99176.94;5034139;28;19921;-74
2023/07/22 01:05:04;;;;;;;;;;;;;;;24.48;100.00;99174.47;5040978;28;20426;-73
2023/07/22 01:07:30;;;;;;;;;;;;;;;24.50;100.00;99161.59;5039141;28;19925;-73
2023/07/22 01:09:56;;;;;;;;;;;;;;;24.47;100.00;99178.22;5023561;28;20391;-73
2023/07/22 01:12:21;;;;;;;;;;;;;;;24.47;100.00;99180.94;5024153;28;19927;-74
2023/07/22 01:14:47;;;;;;;;;;;;;;;24.43;100.00;99186.00;5035748;28;20008;-74
2023/07/22 01:17:13;;;;;;;;;;;;;;;24.43;100.00;99188.69;5041290;28;19925;-73
2023/07/22 01:19:39;;;;;;;;;;;;;;;24.46;100.00;99187.38;5041293;28;19957;-73
2023/07/22 01:22:07;;;;;;;;;;;;;;;24.42;100.00;99183.53;5038113;28;20435;-73
2023/07/22 01:24:33;;;;;;;;;;;;;;;24.40;100.00;99185.66;5041427;28;20364;-73
2023/07/22 01:26:58;;;;;;;;;;;;;;;24.44;100.00;99194.91;5041517;28;19956;-74
2023/07/22 01:29:24;;;;;;;;;;;;;;;24.25;100.00;99196.16;5022408;28;19928;-74
2023/07/22 01:31:51;;;;;;;;;;;;;;;24.09;100.00;99206.56;5042244;28;20070;-74
2023/07/22 01:34:16;;;;;;;;;;;;;;;24.03;100.00;99204.84;5023355;28;19920;-73
2023/07/22 01:36:43;;;;;;;;;;;;;;;24.06;100.00;99208.94;5036851;28;19928;-74
2023/07/22 01:39:08;;;;;;;;;;;;;;;24.06;100.00;99209.75;5041674;28;19925;-74
2023/07/22 01:41:34;;;;;;;;;;;;;;;24.05;100.00;99202.72;5039981;28;19973;-73
2023/07/22 01:44:00;;;;;;;;;;;;;;;24.08;100.00;99204.97;5023327;28;19928;-74
2023/07/22 01:46:25;;;;;;;;;;;;;;;24.02;100.00;99208.63;5041786;28;19943;-74
2023/07/22 01:48:51;;;;;;;;;;;;;;;24.01;100.00;99204.28;5026339;28;19928;-74
2023/07/22 01:51:16;;;;;;;;;;;;;;;23.74;100.00;99205.81;5043439;28;20015;-73
2023/07/22 01:53:42;;;;;;;;;;;;;;;23.83;100.00;99209.81;5020177;28;19920;-74
2023/07/22 01:56:07;;;;;;;;;;;;;;;23.91;100.00;99206.75;5042081;28;20360;-73
2023/07/22 01:58:34;;;;;;;;;;;;;;;23.90;100.00;99210.50;5045273;28;19924;-74
2023/07/22 02:01:00;;;;;;;;;;;;;;;23.69;100.00;99213.81;5024507;28;19940;-75
2023/07/22 02:03:25;;;;;;;;;;;;;;;23.80;100.00;99210.28;5026250;28;19970;-75
2023/07/22 02:05:51;;;;;;;;;;;;;;;23.87;100.00;99216.34;5040870;28;19953;-75
2023/07/22 02:08:16;;;;;;;;;;;;;;;23.93;100.00;99207.31;5026877;28;19928;-75
2023/07/22 02:10:42;;;;;;;;;;;;;;;23.98;100.00;99210.13;5024485;28;19924;-75
2023/07/22 02:13:08;;;;;;;;;;;;;;;23.99;100.00;99211.78;5045701;28;19963;-73
2023/07/22 02:15:34;;;;;;;;;;;;;;;24.02;100.00;99208.63;5021698;28;19936;-75
2023/07/22 02:18:00;;;;;;;;;;;;;;;24.03;100.00;99210.22;5045795;28;20327;-74
2023/07/22 02:20:28;;;;;;;;;;;;;;;24.07;100.00;99216.81;5025697;28;19916;-73
2023/07/22 02:22:54;;;;;;;;;;;;;;;24.05;100.00;99229.69;5025809;28;19928;-73
2023/07/22 02:25:20;;;;;;;;;;;;;;;24.06;100.00;99234.03;5042913;28;19917;-73
2023/07/22 02:27:46;;;;;;;;;;;;;;;24.05;100.00;99226.16;5027683;28;19928;-74
2023/07/22 02:30:11;;;;;;;;;;;;;;;24.07;100.00;99232.16;5039680;28;19946;-75
2023/07/22 02:32:39;;;;;;;;;;;;;;;24.05;100.00;99229.69;5044446;28;20407;-75
2023/07/22 02:35:06;;;;;;;;;;;;;;;24.11;100.00;99233.31;5039507;28;20308;-75
2023/07/22 02:37:32;;;;;;;;;;;;;;;24.11;100.00;99237.88;5043556;28;19960;-74
2023/07/22 02:39:57;;;;;;;;;;;;;;;24.08;100.00;99240.00;5045244;28;20458;-75
2023/07/22 02:42:23;;;;;;;;;;;;;;;24.12;100.00;99242.22;5043819;28;19968;-74
2023/07/22 02:44:48;;;;;;;;;;;;;;;24.09;100.00;99238.94;5042344;28;19924;-75
2023/07/22 02:47:14;;;;;;;;;;;;;;;24.07;100.00;99238.38;5027284;28;19928;-75
2023/07/22 02:49:39;;;;;;;;;;;;;;;24.01;100.00;99244.69;5038886;28;20304;-74
2023/07/22 02:52:06;;;;;;;;;;;;;;;23.99;100.00;99236.03;5041754;28;19920;-74
2023/07/22 02:54:37;;;;;;;;;;;;;;;23.97;100.00;99235.47;5043315;28;20324;-75
2023/07/22 02:57:03;;;;;;;;;;;;;;;24.00;100.00;99226.06;5026321;28;19921;-74
2023/07/22 02:59:29;;;;;;;;;;;;;;;23.98;100.00;99223.59;5044132;28;19983;-75
2023/07/22 03:01:54;;;;;;;;;;;;;;;23.98;100.00;99228.16;5043296;28;20376;-75
2023/07/22 03:04:19;;;;;;;;;;;;;;;23.95;100.00;99234.88;5042016;28;20404;-75
2023/07/22 03:06:45;;;;;;;;;;;;;;;23.92;100.00;99240.72;5027072;28;19921;-75
2023/07/22 03:09:11;;;;;;;;;;;;;;;23.85;100.00;99234.66;5022649;28;19920;-76
2023/07/22 03:11:36;;;;;;;;;;;;;;;23.85;100.00;99244.63;5041055;28;20108;-75
2023/07/22 03:14:02;;;;;;;;;;;;;;;23.79;100.00;99232.91;5041927;28;19929;-74
2023/07/22 03:16:27;;;;;;;;;;;;;;;23.81;100.00;99240.72;5042835;28;19921;-75
2023/07/22 03:18:53;;;;;;;;;;;;;;;23.75;100.00;99237.09;5040986;28;20408;-74
2023/07/22 03:21:18;;;;;;;;;;;;;;;23.72;100.00;99234.91;5026150;28;19968;-75
2023/07/22 03:23:43;;;;;;;;;;;;;;;23.72;100.00;99239.47;5041644;28;19974;-75
2023/07/22 03:26:09;;;;;;;;;;;;;;;23.68;100.00;99233.72;5026974;28;20385;-75
2023/07/22 03:28:35;;;;;;;;;;;;;;;23.64;100.00;99238.75;5042227;28;19929;-74
2023/07/22 03:31:00;;;;;;;;;;;;;;;23.56;100.00;99241.78;5040858;28;19921;-74
2023/07/22 03:33:26;;;;;;;;;;;;;;;23.57;100.00;99242.63;5044018;28;20439;-75
2023/07/22 03:35:51;;;;;;;;;;;;;;;23.52;100.00;99246.00;5024916;28;19924;-75
2023/07/22 03:38:17;;;;;;;;;;;;;;;23.46;100.00;99251.47;5043306;28;20020;-76
2023/07/22 03:40:43;;;;;;;;;;;;;;;23.41;100.00;99259.44;5044667;28;19967;-75
2023/07/22 03:43:08;;;;;;;;;;;;;;;23.39;100.00;99250.75;5022690;28;19924;-75
2023/07/22 03:45:34;;;;;;;;;;;;;;;23.36;100.00;99256.63;5043702;28;19925;-74
2023/07/22 03:48:00;;;;;;;;;;;;;;;23.34;100.00;99259.53;5040720;28;20327;-74
2023/07/22 03:50:26;;;;;;;;;;;;;;;23.35;100.00;99260.38;5042374;28;19943;-73
2023/07/22 03:52:51;;;;;;;;;;;;;;;23.32;100.00;99269.75;5025945;28;20296;-73
2023/07/22 03:55:19;;;;;;;;;;;;;;;23.32;100.00;99271.63;5019752;28;19921;-74
2023/07/22 03:57:45;;;;;;;9.35;7.60;;;;;;;23.28;100.00;99272.06;5042544;28;20019;-74
2023/07/22 04:00:11;;;;;;;9.75;7.53;;;;;;;23.33;100.00;99284.81;5034833;28;20082;-75
2023/07/22 04:02:40;;;;;;;8.63;7.57;;;;;;;23.31;100.00;99278.06;5038690;28;20029;-73
2023/07/22 04:05:06;;;;;;;12.38;7.95;;;;;;;23.27;100.00;99274.97;5042656;28;20037;-74
2023/07/22 04:07:32;;;;;;;11.20;9.07;;;;;;;23.26;100.00;99282.28;5022315;28;20116;-74
2023/07/22 04:09:58;;;;;;;11.25;8.80;;;;;;;23.31;100.00;99286.94;5040733;28;20116;-75
2023/07/22 04:12:24;;;;;;;13.13;8.60;;;;;;;23.33;100.00;99289.41;5041475;28;20032;-74
2023/07/22 04:14:49;;;;;;;9.63;8.57;;;;;;;23.34;100.00;99293.72;5042144;28;20532;-74
2023/07/22 04:17:15;;;;;;;11.50;8.20;;;;;;;23.36;100.00;99295.16;5038538;28;20379;-74
2023/07/22 04:19:42;;;;;;;13.43;9.23;;;;;;;23.36;100.00;99302.41;5042268;28;20017;-74
2023/07/22 04:22:08;;;;;;;9.65;8.65;;;;;;;23.40;100.00;99306.25;5040566;28;20502;-75
2023/07/22 04:24:34;;;;;;;12.25;9.75;;;;;;;23.39;100.00;99315.38;5041675;28;20124;-74
2023/07/22 04:27:01;;;;;;;11.68;8.65;;;;;;;23.37;100.00;99306.75;5039143;28;20533;-74
2023/07/22 04:29:26;;;;;;;10.73;8.23;;;;;;;23.32;100.00;99303.94;5043471;28;20420;-75
2023/07/22 04:31:57;;;;;;;10.10;7.15;;;;;;;23.32;100.00;99309.31;5041225;28;20090;-75
2023/07/22 04:34:25;;;;;;;8.77;7.85;;;;;;;23.25;100.00;99321.00;5042150;28;20634;-75
2023/07/22 04:36:51;;;;;;;9.95;7.50;;;;;;;23.27;100.00;99329.66;5040703;28;20030;-75
2023/07/22 04:39:17;;;;;;;7.97;7.18;;;;;;;23.10;100.00;99338.59;5041435;28;20040;-74
2023/07/22 04:41:43;;;;;;;13.07;6.47;;;;;;;23.16;100.00;99333.13;5043032;28;20037;-75
2023/07/22 04:44:08;;;;;;;7.90;6.22;;;;;;;23.10;100.00;99328.66;5040944;28;20033;-75
2023/07/22 04:46:35;;;;;;;8.00;7.00;;;;;;;23.11;100.00;99324.94;5038114;28;20034;-75
2023/07/22 04:49:01;;;;;;;7.93;6.28;;;;;;;23.09;100.00;99326.22;5023160;28;20400;-75
2023/07/22 04:51:27;;;;;;;8.73;6.00;;;;;;;23.09;100.00;99332.41;5043320;28;20375;-75
2023/07/22 04:53:52;;;;;;;7.65;6.60;;;;;;;23.09;100.00;99332.41;5041923;28;20476;-75
2023/07/22 04:56:18;;;;;;;10.60;6.30;;;;;;;23.09;100.00;99337.78;5039936;28;20036;-74
2023/07/22 04:58:44;;;;;;;;;;;;;;;23.10;100.00;99346.69;5043277;28;19921;-74
2023/07/22 05:01:09;;;;;;;;;;;;;;;22.87;100.00;99342.03;5041173;28;19925;-74
2023/07/22 05:03:35;;;;;;;;;;;;;;;23.02;100.00;99342.47;5042496;28;19929;-75
2023/07/22 05:06:01;;;;;;;;;;;;;;;23.04;100.00;99340.34;5036465;28;19975;-75
2023/07/22 05:08:26;;;;;;;;;;;;;;;23.08;100.00;99338.84;5040809;28;19920;-74
2023/07/22 05:10:53;;;;;;;;;;;;;;;23.12;100.00;99345.41;5042609;28;19921;-75
2023/07/22 05:13:19;;;;;;;10.40;6.40;;;;;;;23.15;100.00;99342.25;5039725;28;19917;-74
2023/07/22 05:15:44;;;;;;;;;;;;;;;23.19;100.00;99346.16;5040333;28;20036;-73
2023/07/22 05:18:10;;;;;;;;;;;;;;;23.25;100.00;99347.09;5037210;28;20384;-73
2023/07/22 05:20:37;;;;;;;;;;;;;;;23.31;100.00;99361.50;5038418;28;20010;-75
2023/07/22 05:23:02;;;;;;;;;;;;;;;23.35;100.00;99351.91;5024666;28;20338;-75
2023/07/22 05:25:28;;;;;;;;;;;;;;;23.40;100.00;99355.56;5039262;28;19921;-76
2023/07/22 05:27:54;;;;;;;7.57;6.78;;;;;;;23.41;100.00;99356.38;5040862;28;20369;-75
2023/07/22 05:30:20;;;;;;;;;;;;;;;23.44;100.00;99355.94;5041572;28;20048;-75
2023/07/22 05:32:45;;;;;;;11.60;8.88;;;;;;;23.46;100.00;99356.50;5042433;28;19963;-75
2023/07/22 05:35:11;;;;;;;;;;;;;;;23.50;100.00;99357.75;5037139;28;20026;-76
2023/07/22 05:37:37;;;;;;;;;;;;;;;23.48;100.00;99349.06;5042674;28;19917;-75
2023/07/22 05:40:02;;;;;;;;;;;;;;;23.46;100.00;99359.19;5040901;28;19924;-73
2023/07/22 05:42:28;;;;;;;;;;;;;;;23.46;100.00;99361.88;5038705;28;19974;-73
2023/07/22 05:44:54;;;;;;;;;;;;;;;23.49;100.00;99358.78;5041656;28;19917;-75
2023/07/22 05:47:20;;;;;;;;;;;;;;;23.54;100.00;99356.22;5041231;28;20356;-73
2023/07/22 05:49:45;;;;;;;;;;;;;;;23.58;100.00;99357.38;5037809;28;19924;-74
2023/07/22 05:52:11;;;;;;;;;;;;;;;23.56;100.00;99359.50;5041263;28;19917;-74
2023/07/22 05:54:36;;;;;;;;;;;;;;;23.62;100.00;99359.38;5041210;28;19924;-74
2023/07/22 05:57:03;;;;;;;;;;;;;;;23.63;100.00;99368.28;5022236;28;20323;-73
2023/07/22 05:59:29;;;;;;;;;;;;;;;23.60;100.00;99376.84;5039301;28;19920;-73
2023/07/22 06:01:55;;;;;;;;;;;;;;;23.63;100.00;99369.09;5018236;28;19924;-76
2023/07/22 06:04:20;;;;;;;;;;;;;;;23.64;100.00;99368.06;5039839;28;19932;-76
2023/07/22 06:06:46;;;;;;;;;;;;;;;23.69;100.00;99364.66;5004003;28;19924;-75
2023/07/22 06:09:11;;;;;;;;;;;;;;;23.74;100.00;99367.47;5039507;28;19982;-73
2023/07/22 06:11:37;;;;;;;;;;;;;;;23.77;100.00;99371.59;5056017;22;19956;-80
2023/07/22 06:14:03;;;;;;;;;;;;;;;23.85;100.00;99368.56;5042063;28;20012;-77
2023/07/22 06:16:29;;;;;;;;;;;;;;;23.90;100.00;99371.38;5039686;28;20364;-80
2023/07/22 06:18:54;;;;;;;;;;;;;;;23.90;100.00;99366.81;5041305;28;19917;-80
2023/07/22 06:21:19;;;;;;;;;;;;;;;23.95;100.00;99368.78;5037015;28;19918;-80
2023/07/22 06:23:45;;;;;;;;;;;;;;;23.99;100.00;99376.19;5037794;28;19916;-80
2023/07/22 06:26:10;;;;;;;;;;;;;;;23.99;100.00;99369.97;5040686;28;19924;-79
2023/07/22 06:28:35;;;;;;;;;;;;;;;24.01;100.00;99374.06;5036483;28;19940;-80
2023/07/22 06:31:01;;;;;;;;;;;;;;;24.06;100.00;99376.88;5038418;28;20007;-78
2023/07/22 06:33:26;;;;;;;;;;;;;;;24.08;100.00;99384.75;5042720;28;20113;-79
2023/07/22 06:35:51;;;;;;;;;;;;;;;24.17;100.00;99388.72;5043012;28;19921;-80
2023/07/22 06:38:17;;;;;;;;;;;;;;;24.23;100.00;99387.00;5042349;28;19920;-79
2023/07/22 06:40:42;;;;;;;;;;;;;;;24.26;100.00;99381.13;5027148;28;19939;-81
2023/07/22 06:43:07;;;;;;;;;;;;;;;24.31;100.00;99383.94;5045390;28;19917;-79
2023/07/22 06:45:33;;;;;;;;;;;;;;;24.38;100.00;99390.03;5047870;28;19923;-80
2023/07/22 06:47:58;;;;;;;;;;;;;;;24.43;100.00;99393.66;5044719;28;19963;-83
2023/07/22 06:50:24;;;;;;;;;;;;;;;24.46;100.00;99397.75;5044158;28;20007;-81
2023/07/22 06:52:49;;;;;;;;;;;;;;;24.41;100.00;99408.44;5044899;28;19971;-81
2023/07/22 06:55:15;;;;;;;;;;;;;;;24.38;100.00;99409.75;5042700;28;19979;-81
2023/07/22 06:57:43;;;;;;;;;;;;;;;24.49;100.00;99408.09;5039090;28;19917;-80
2023/07/22 07:00:11;;;;;;;;;;;;;;;24.53;100.00;99406.56;5022887;28;20365;-81
2023/07/22 07:02:37;;;;;;;;;;;;;;;24.59;100.00;99412.88;5041157;28;20292;-81
2023/07/22 07:05:03;;;;;;;;;;;;;;;24.63;100.00;99420.25;5045117;28;19917;-80
2023/07/22 07:07:29;;;;;;;;;;;;;;;24.64;100.00;99416.50;5041469;28;20011;-81
2023/07/22 07:09:54;;;;;;;;;;;;;;;24.62;100.00;99424.03;5043266;28;19999;-80
2023/07/22 07:12:19;;;;;;;;;;;;;;;24.63;100.00;99422.94;5044107;28;19920;-81
2023/07/22 07:14:45;;;;;;;;;;;;;;;24.60;100.00;99431.53;5044671;28;19917;-80
2023/07/22 07:17:10;;;;;;;;;;;;;;;24.60;100.00;99425.31;5038690;28;19924;-79
2023/07/22 07:19:36;;;;;;;;;;;;;;;24.65;100.00;99428.94;5045184;28;19946;-80
2023/07/22 07:22:01;;;;;;;;;;;;;;;24.68;100.00;99417.66;5024830;28;19917;-82
2023/07/22 07:24:27;;;;;;;11.50;10.20;;;;;;;24.74;100.00;99426.72;5042747;28;19917;-80
2023/07/22 07:26:52;;;;;;;13.80;9.40;;;;;;;24.82;100.00;99424.44;5044023;28;20033;-79
2023/07/22 07:29:18;;;;;;;13.85;9.85;;;;;;;24.86;100.00;99424.78;5041488;28;20033;-79
2023/07/22 07:31:43;;;;;;;12.98;9.23;;;;;;;24.90;100.00;99422.47;5042147;28;20107;-81
2023/07/22 07:34:09;;;;;;;16.77;9.38;;;;;;;24.91;100.00;99424.13;5040864;28;20057;-80
2023/07/22 07:36:34;;;;;;;;;;;;;;;24.99;100.00;99418.31;5040185;28;20041;-80
2023/07/22 07:38:59;;;;;;;;;;;;;;;24.98;100.00;99403.19;5044234;28;19924;-80
2023/07/22 07:41:25;;;;;;;;;;;;;;;25.00;100.00;99409.16;5043830;28;19912;-80
2023/07/22 07:43:50;;;;;;;;;;;;;;;24.94;100.00;99415.53;5042512;28;19960;-81
2023/07/22 07:46:17;;;;;;;;;;;;;;;24.80;100.00;99415.75;5042586;28;20015;-81
2023/07/22 07:48:43;;;;;;;;;;;;;;;24.88;100.00;99420.81;5042376;28;19923;-81
2023/07/22 07:51:08;;;;;;;;;;;;;;;24.93;100.00;99424.69;5042898;28;19917;-81
2023/07/22 07:53:34;;;;;;;;;;;;;;;25.00;100.00;99425.38;5043859;28;20336;-81
2023/07/22 07:55:59;;;;;;;;;;;;;;;25.04;100.00;99426.53;5039789;28;19939;-79
2023/07/22 07:58:25;;;;;;;;;;;;;;;25.09;100.00;99429.34;5044324;28;20377;-80
2023/07/22 08:00:51;;;;;;;;;;;;;;;25.14;100.00;99424.88;5041871;28;19999;-80
2023/07/22 08:03:16;;;;;;;;;;;;;;;25.19;100.00;99418.75;5044073;28;19928;-81
2023/07/22 08:05:41;;;;;;;;;;;;;;;25.20;100.00;99415.81;5044620;28;20285;-81
2023/07/22 08:08:06;;;;;;;;;;;;;;;25.27;100.00;99421.06;5041230;28;19924;-81
2023/07/22 08:10:32;;;;;;;;;;;;;;;25.34;100.00;99418.19;5044113;28;19920;-80
2023/07/22 08:12:57;;;;;;;;;;;;;;;25.32;100.00;99412.22;5025103;28;19917;-81
2023/07/22 08:15:23;;;;;;;;;;;;;;;25.28;100.00;99414.56;5041398;28;20376;-80
2023/07/22 08:17:48;;;;;;;;;;;;;;;25.25;100.00;99415.06;5049156;28;19916;-80
2023/07/22 08:20:13;;;;;;;;;;;;;;;25.26;100.00;99422.94;5045021;28;19913;-80
2023/07/22 08:22:39;;;;;;;;;;;;;;;25.24;100.00;99421.53;5043385;28;19917;-80
2023/07/22 08:25:05;;;;;;;;;;;;;;;25.22;100.00;99416.38;5048029;28;20352;-80
2023/07/22 08:27:30;;;;;;;;;;;;;;;25.29;100.00;99419.75;5045170;28;19976;-80
2023/07/22 08:29:56;;;;;;;;;;;;;;;25.36;100.00;99418.78;5029675;28;19920;-79
2023/07/22 08:32:22;;;;;;;;;;;;;;;25.44;100.00;99423.81;5048556;28;19913;-81
2023/07/22 08:34:49;;;;;;;;;;;;;;;25.56;100.00;99420.03;5044781;28;20372;-80
2023/07/22 08:37:14;;;;;;;;;;;;;;;25.65;100.00;99415.84;5032836;28;19916;-81
2023/07/22 08:39:39;;;;;;;;;;;;;;;25.78;100.00;99413.88;5041582;28;19917;-80
2023/07/22 08:42:06;;;;;;;;;;;;;;;25.88;100.00;99422.16;5041283;28;19956;-80
2023/07/22 08:44:35;;;;;;;;;;;;;;;26.00;100.00;99425.59;5041974;28;19917;-80
2023/07/22 08:47:03;;;;;;;;;;;;;;;26.09;100.00;99413.34;5042953;28;20377;-80
2023/07/22 08:49:30;;;;;;;;;;;;;;;26.19;100.00;99418.06;5040514;28;19917;-80
2023/07/22 08:51:55;;;;;;;;;;;;;;;26.28;100.00;99411.19;5042963;28;19963;-80
2023/07/22 08:54:22;;;;;;;;;;;;;;;26.30;100.00;99409.88;5035832;28;19917;-80
2023/07/22 08:56:49;;;;;;;;;;;;;;;26.37;100.00;99410.53;5041327;28;20011;-80
2023/07/22 08:59:16;;;;;;;;;;;;;;;26.42;100.00;99402.47;5038475;28;19917;-80
2023/07/22 09:01:42;;;;;;;;;;;;;;;26.51;100.00;99399.34;5039229;28;19923;-81
2023/07/22 09:04:07;;;;;;;;;;;;;;;26.55;100.00;99403.19;5041328;28;19917;-81
2023/07/22 09:06:33;;;;;;;;;;;;;;;26.58;100.00;99402.69;5041991;28;19916;-80
2023/07/22 09:08:59;;;;;;;;;;;;;;;26.61;100.00;99394.91;5039816;28;19917;-81
2023/07/22 09:11:25;;;;;;;;;;;;;;;26.66;100.00;99397.66;5039578;28;19917;-80
2023/07/22 09:13:52;;;;;;;;;;;;;;;26.72;100.00;99393.13;5038616;28;20370;-80
2023/07/22 09:16:18;;;;;;;;;;;;;;;26.77;100.00;99395.91;5040595;28;19917;-80
2023/07/22 09:18:43;;;;;;;;;;;;;;;26.83;100.00;99393.00;5042208;28;19917;-80
2023/07/22 09:21:09;;;;;;;;;;;;;;;26.83;100.00;99405.72;5039268;28;20087;-80
2023/07/22 09:23:35;;;;;;;;;;;;;;;26.82;100.00;99401.38;5040264;28;19922;-80
2023/07/22 09:26:10;;;;;;;;;;;;;;;26.85;100.00;99406.31;5043373;28;19916;-80
2023/07/22 09:28:47;;;;;;;;;;;;;;;26.89;100.00;99404.75;5041022;28;19924;-80
2023/07/22 09:31:13;;;;;;;;;;;;;;;26.98;100.00;99407.84;5035523;28;20269;-81
2023/07/22 09:33:38;;;;;;;;;;;;;;;27.07;100.00;99404.44;5043378;28;19921;-81
2023/07/22 09:36:04;;;;;;;;;;;;;;;27.12;100.00;99411.78;5041119;28;19960;-80
2023/07/22 09:38:29;;;;;;;;;;;;;;;27.21;100.00;99411.09;5043204;28;19954;-80
2023/07/22 09:40:54;;;;;;;;;;;;;;;27.26;100.00;99413.84;5041781;28;19952;-80
2023/07/22 09:43:22;;;;;;;;;;;;;;;27.32;100.00;99411.19;5039696;28;19920;-80
2023/07/22 09:45:48;;;;;;;;;;;;;;;27.35;100.00;99410.66;5024235;28;19919;-80
2023/07/22 09:48:13;;;;;;;;;;;;;;;27.39;100.00;99417.25;5039312;28;20008;-80
2023/07/22 09:50:38;;;;;;;;;;;;;;;27.37;100.00;99419.38;5038009;28;19917;-81
2023/07/22 09:53:04;;;;;;;;;;;;;;;27.32;100.00;99417.44;5021815;28;19974;-80
2023/07/22 09:55:30;;;;;;;;;;;;;;;27.34;100.00;99414.44;5039214;28;19923;-80
2023/07/22 09:57:57;;;;;;;;;;;;;;;27.41;100.00;99415.06;5041161;28;19924;-79
2023/07/22 10:00:32;;;;;;;;;;;;;;;27.48;100.00;99408.38;5041183;28;20396;-80
2023/07/22 10:02:58;;;;;;;;;;;;;;;27.39;100.00;99414.53;5039487;28;19917;-80
2023/07/22 10:05:24;;;;;;;;;;;;;;;27.45;100.00;99410.78;5039952;28;19920;-79
2023/07/22 10:07:51;;;;;;;;;;;;;;;27.52;100.00;99417.66;5041174;28;20019;-80
2023/07/22 10:10:19;;;;;;;;;;;;;;;27.61;100.00;99408.00;5045658;28;19920;-80
2023/07/22 10:12:45;;;;;;;;;;;;;;;27.66;100.00;99416.19;5045537;28;19924;-80
2023/07/22 10:15:12;;;;;;;;;;;;;;;27.67;100.00;99411.56;5041906;28;19921;-81
2023/07/22 10:17:37;;;;;;;;;;;;;;;27.62;100.00;99411.53;5026856;28;20285;-80
2023/07/22 10:20:06;;;;;;;;;;;;;;;27.65;100.00;99411.00;5045091;28;19917;-81
2023/07/22 10:22:34;;;;;;;;;;;;;;;27.66;100.00;99402.63;5042330;28;20310;-81
2023/07/22 10:25:00;;;;;;;;;;;;;;;27.55;100.00;99406.31;5032242;28;20403;-80
2023/07/22 10:27:25;;;;;;;;;;;;;;;27.52;100.00;99397.88;5043310;28;19917;-79
2023/07/22 10:29:51;;;;;;;;;;;;;;;27.56;100.00;99404.44;5042704;28;19987;-80
2023/07/22 10:32:17;;;;;;;;;;;;;;;27.68;100.00;99399.66;5047014;28;19933;-80
2023/07/22 10:34:43;;;;;;;;;;;;;;;27.82;100.00;99400.03;5042383;28;19924;-79
2023/07/22 10:37:11;;;;;;;;;;;;;;;27.92;100.00;99392.78;5044852;28;20011;-80
2023/07/22 10:39:36;;;;;;;;;;;;;;;28.01;100.00;99399.38;5045012;28;19924;-80
2023/07/22 10:42:05;;;;;;;;;;;;;;;28.06;100.00;99387.75;5042787;28;20007;-80
2023/07/22 10:44:31;;;;;;;;;;;;;;;28.06;100.00;99391.28;5043250;28;19927;-79
2023/07/22 10:46:57;;;;;;;;;;;;;;;28.07;100.00;99387.50;5040516;28;19956;-80
2023/07/22 10:49:22;;;;;;;;;;;;;;;28.16;100.00;99389.75;5042386;28;20304;-81
2023/07/22 10:51:49;;;;;;;;;;;;;;;28.16;100.00;99389.75;5047010;28;19916;-80
2023/07/22 10:54:15;;;;;;;;;;;;;;;28.16;100.00;99390.56;5041772;28;19924;-80
2023/07/22 10:56:43;;;;;;;;;;;;;;;28.20;100.00;99390.88;5043424;28;19916;-80
2023/07/22 10:59:12;;;;;;;;;;;;;;;28.19;100.00;99389.22;5043539;28;19920;-80
2023/07/22 11:01:38;;;;;;;;;;;;;;;28.18;100.00;99393.00;5026763;28;19912;-80
2023/07/22 11:04:03;;;;;;;;;;;;;;;28.21;100.00;99392.50;5042235;28;19924;-81
2023/07/22 11:06:29;;;;;;;;;;;;;;;28.29;100.00;99390.09;5041370;28;19972;-80
2023/07/22 11:08:55;;;;;;;;;;;;;;;28.29;100.00;99390.09;5042413;28;20258;-80
2023/07/22 11:11:33;;;;;;;;;;;;;;;28.36;100.00;99389.88;5044175;28;19978;-78
2023/07/22 11:14:12;;;;;;;;;;;;;;;28.39;100.00;99394.78;5044851;28;19970;-80
2023/07/22 11:16:37;;;;;;;;;;;;;;;28.46;100.00;99384.50;5042532;28;19924;-80
2023/07/22 11:19:03;;;;;;;;;;;;;;;28.52;100.00;99388.88;5044241;28;19917;-80
2023/07/22 11:21:28;;;;;;;;;;;;;;;28.58;100.00;99382.38;5042536;28;19920;-80
2023/07/22 11:23:53;;;;;;;;;;;;;;;28.61;100.00;99381.88;5039933;28;20284;-80
2023/07/22 11:26:19;;;;;;;;;;;;;;;28.68;100.00;99371.59;5040981;28;19917;-80
2023/07/22 11:28:45;;;;;;;;;;;;;;;28.73;100.00;99377.06;5041430;28;19963;-80
2023/07/22 11:31:12;;;;;;;;;;;;;;;28.78;100.00;99371.66;5036448;28;20078;-79
2023/07/22 11:33:39;;;;;;;;;;;;;;;28.85;100.00;99377.66;5043410;28;19917;-80
2023/07/22 11:36:04;;;;;;;;;;;;;;;28.86;100.00;99373.84;5041776;28;19923;-80
2023/07/22 11:38:30;;;;;;;;;;;;;;;28.84;100.00;99370.59;5042288;28;19921;-80
2023/07/22 11:40:55;;;;;;;;;;;;;;;28.89;100.00;99359.75;5043499;28;19925;-80
2023/07/22 11:43:20;;;;;;;;;;;;;;;28.95;100.00;99363.28;5033377;28;19940;-77
2023/07/22 11:45:46;;;;;;;;;;;;;;;28.95;100.00;99359.75;5062245;28;19938;-80
2023/07/22 11:48:12;;;;;;;;;;;;;;;29.01;100.00;99355.97;5054067;28;19956;-79
2023/07/22 11:50:37;;;;;;;;;;;;;;;28.99;100.00;99355.41;5052736;28;19993;-80
2023/07/22 11:53:03;;;;;;;;;;;;;;;29.06;100.00;99351.38;5045358;28;19952;-81
2023/07/22 11:55:28;;;;;;;;;;;;;;;29.14;100.00;99347.31;5040374;28;20357;-81
2023/07/22 11:57:54;;;;;;;;;;;;;;;29.16;100.00;99350.59;5043208;28;19924;-78
2023/07/22 12:00:19;;;;;;;;;;;;;;;29.21;100.00;99353.31;5043058;28;19924;-80
2023/07/22 12:02:45;;;;;;;;;;;;;;;29.26;100.00;99353.31;5037360;28;19917;-81
2023/07/22 12:05:11;;;;;;;;;;;;;;;29.36;100.00;99355.25;5042389;28;20006;-81
2023/07/22 12:07:37;;;;;;;;;;;;;;;29.51;100.00;99356.06;5036282;28;19925;-80
2023/07/22 12:10:05;;;;;;;;;;;;;;;29.62;100.00;99349.59;5043764;28;19992;-79
2023/07/22 12:12:34;;;;;;;;;;;;;;;29.73;100.00;99346.84;5042175;28;19920;-80
2023/07/22 12:15:04;;;;;;;;;;;;;;;29.76;99.60;99349.81;5041593;28;19912;-80
2023/07/22 12:17:30;;;;;;;;;;;;;;;29.78;99.05;99346.84;5042017;28;19925;-80
2023/07/22 12:19:55;;;;;;;;;;;;;;;29.77;97.96;99345.22;5043007;28;19917;-80
2023/07/22 12:22:20;;;;;;;;;;;;;;;29.80;97.94;99339.25;5020568;28;20341;-78